Nevsehir Kapadokya International Airport Nevsehir TR
ICAO: LTAZ
IATA: NAV
Category: Large
Scheduled Services: No

Elevation: 3100 ft
TransAlt. 10000 ft.

Airport Communications:
ESENBOGA APP:119.1
TWR:35.892
TWR:119

LTAZ Zoom In..

If you have problems with the map follow the link
https://www.worldairports.se/pages/airport.php?
ICAO=LTAZ

Runways:

(A) RW 11 length 9843 ft width 148 ft
ILS 110.70 / hdg 113

(B) RW 29 length 9843 ft width 148 ft
---- / hdg 293

Location; LTAZ
Day. 22 / Time. 12.50 Zulu
* QNH: 1014
* Temperature: 12° c. 53.6°f.
* Wind from: 230° Speed 10 kn.
Dewpoint: -06° c.
Visibility: 10 km or more.
Clouds: Broken 3500 ft.

LTAZ 221250Z 23010KT 210V270 9999 BKN035 12/M06 Q1014


Wind From 230°
Speed 10 kn.

 
 
jpsmedia.com for Web Design worldairports.se 2019   terms of use